Time;durP1;ratioP1;P1;durP2;ratioP2;P2;SDS_P1;SDS_P2;PMS_P1;PMS_P2;Temp;Humidity;BMP_temperature;BMP_pressure;BME280_temperature;BME280_humidity;BME280_pressure;Samples;Min_cycle;Max_cycle;Signal;HPM_P1;HPM_P2
2022/03/24 00:01:33;;;;;;;22.48;16.90;;;6.90;92.20;;;;;;5017169;28;20108;-74
2022/03/24 00:03:59;;;;;;;29.02;17.45;;;6.80;92.80;;;;;;5035182;28;20087;-75
2022/03/24 00:06:25;;;;;;;33.05;18.10;;;6.60;93.30;;;;;;5035256;28;20021;-74
2022/03/24 00:08:50;;;;;;;23.52;17.52;;;6.60;93.90;;;;;;5035103;28;20028;-76
2022/03/24 00:11:17;;;;;;;25.77;17.73;;;6.60;94.40;;;;;;5034652;28;20528;-76
2022/03/24 00:13:43;;;;;;;25.42;16.42;;;6.50;94.80;;;;;;5017350;28;20032;-76
2022/03/24 00:16:09;;;;;;;22.17;15.35;;;6.50;94.90;;;;;;5017264;28;20400;-76
2022/03/24 00:18:35;;;;;;;21.52;15.55;;;6.50;95.20;;;;;;5017033;28;20128;-75
2022/03/24 00:21:01;;;;;;;23.77;16.50;;;6.50;95.10;;;;;;5034584;28;20057;-75
2022/03/24 00:23:27;;;;;;;27.67;16.23;;;6.50;95.10;;;;;;5034506;28;20018;-76
2022/03/24 00:25:53;;;;;;;22.70;15.48;;;6.40;95.90;;;;;;5016975;28;20025;-75
2022/03/24 00:28:19;;;;;;;25.98;16.17;;;6.40;96.50;;;;;;5036048;28;20071;-75
2022/03/24 00:30:44;;;;;;;25.38;15.40;;;6.40;97.00;;;;;;5016615;28;20116;-75
2022/03/24 00:33:11;;;;;;;21.60;15.68;;;6.30;96.90;;;;;;5017695;28;20028;-74
2022/03/24 00:35:37;;;;;;;22.88;16.02;;;6.20;97.20;;;;;;5036223;28;20398;-76
2022/03/24 00:38:04;;;;;;;20.70;15.98;;;6.30;97.40;;;;;;5017243;28;20025;-75
2022/03/24 00:40:30;;;;;;;24.85;16.80;;;6.30;97.40;;;;;;5034767;28;20017;-76
2022/03/24 00:42:55;;;;;;;24.60;15.10;;;6.30;97.70;;;;;;5016858;28;20028;-74
2022/03/24 00:45:21;;;;;;;25.35;16.38;;;6.20;98.10;;;;;;5034663;28;20022;-77
2022/03/24 00:47:47;;;;;;;21.77;16.17;;;6.10;98.60;;;;;;5034579;28;20517;-75
2022/03/24 00:50:13;;;;;;;21.05;16.02;;;6.00;99.00;;;;;;5034599;28;20485;-76
2022/03/24 00:52:43;;;;;;;21.05;15.88;;;5.90;99.80;;;;;;5034224;28;20401;-76
2022/03/24 00:55:15;;;;;;;23.00;15.90;;;5.90;99.90;;;;;;5016717;28;20026;-74
2022/03/24 00:57:42;;;;;;;25.30;15.70;;;5.90;99.90;;;;;;5034381;28;20033;-76
2022/03/24 01:00:09;;;;;;;22.30;15.73;;;5.80;99.90;;;;;;5035266;28;20022;-76
2022/03/24 01:02:37;;;;;;;25.33;16.23;;;5.80;99.90;;;;;;5033845;28;20489;-75
2022/03/24 01:05:07;;;;;;;27.08;17.00;;;5.80;99.90;;;;;;5016665;28;20076;-76
2022/03/24 01:07:33;;;;;;;21.38;16.33;;;5.80;99.90;;;;;;5033820;28;20025;-75
2022/03/24 01:09:59;;;;;;;25.98;16.20;;;5.80;99.90;;;;;;5034260;28;20033;-75
2022/03/24 01:12:24;;;;;;;23.50;17.23;;;5.80;99.90;;;;;;5033541;28;20423;-75
2022/03/24 01:14:50;;;;;;;19.50;15.73;;;5.80;99.90;;;;;;5015928;28;20037;-75
2022/03/24 01:17:17;;;;;;;24.23;17.17;;;5.80;99.90;;;;;;5016142;28;20465;-75
2022/03/24 01:19:44;;;;;;;25.70;16.52;;;5.70;99.90;;;;;;5033773;28;20037;-75
2022/03/24 01:22:10;;;;;;;26.42;16.25;;;5.60;99.90;;;;;;5033857;28;20022;-75
2022/03/24 01:24:38;;;;;;;23.17;15.80;;;5.60;99.90;;;;;;5033945;28;20041;-75
2022/03/24 01:27:05;;;;;;;24.77;16.75;;;5.70;99.90;;;;;;5033882;28;20022;-75
2022/03/24 01:29:31;;;;;;;22.70;15.65;;;5.60;99.90;;;;;;5033623;28;20045;-77
2022/03/24 01:31:57;;;;;;;24.77;17.42;;;5.60;99.90;;;;;;5033211;28;20071;-75
2022/03/24 01:34:24;;;;;;;21.58;15.40;;;5.50;99.90;;;;;;5033243;28;20025;-75
2022/03/24 01:36:50;;;;;;;27.52;16.55;;;5.50;99.90;;;;;;5033622;28;20026;-75
2022/03/24 01:39:15;;;;;;;24.23;16.45;;;5.50;99.90;;;;;;5015563;28;20139;-76
2022/03/24 01:41:41;;;;;;;25.55;16.20;;;5.40;99.90;;;;;;5015534;28;20018;-75
2022/03/24 01:44:12;;;;;;;25.13;15.77;;;5.40;99.90;;;;;;5033446;28;20018;-75
2022/03/24 01:46:38;;;;;;;24.63;17.92;;;5.50;99.90;;;;;;5033133;28;20033;-75
2022/03/24 01:49:04;;;;;;;21.10;16.08;;;5.40;99.90;;;;;;5032876;28;20408;-76
2022/03/24 01:51:30;;;;;;;24.60;16.85;;;5.50;99.90;;;;;;5032724;28;20030;-74
2022/03/24 01:53:59;;;;;;;24.27;16.15;;;5.60;99.90;;;;;;5033107;28;20460;-73
2022/03/24 01:56:26;;;;;;;26.27;15.57;;;5.60;99.90;;;;;;5033751;28;20099;-76
2022/03/24 01:58:54;;;;;;;26.30;15.80;;;5.60;99.90;;;;;;5015110;28;20117;-75
2022/03/24 02:01:36;;;;;;;19.02;14.77;;;5.50;99.90;;;;;;5032856;28;20438;-77
2022/03/24 02:04:06;;;;;;;28.08;16.50;;;5.50;99.90;;;;;;5033161;28;20483;-77
2022/03/24 02:06:33;;;;;;;22.25;16.15;;;5.40;99.90;;;;;;5033026;28;20071;-74
2022/03/24 02:09:02;;;;;;;24.63;15.50;;;5.40;99.90;;;;;;5032730;28;20057;-74
2022/03/24 02:11:29;;;;;;;23.13;15.93;;;5.40;99.90;;;;;;5015365;28;20490;-75
2022/03/24 02:13:55;;;;;;;21.30;15.23;;;5.30;99.90;;;;;;5032933;28;20034;-76
2022/03/24 02:16:27;;;;;;;28.63;16.08;;;5.30;99.90;;;;;;5015505;28;20033;-75
2022/03/24 02:18:59;;;;;;;22.90;17.90;;;5.30;99.90;;;;;;5033066;28;20025;-76
2022/03/24 02:21:25;;;;;;;19.65;16.65;;;5.20;99.90;;;;;;5014970;28;20115;-75
2022/03/24 02:23:51;;;;;;;21.75;15.85;;;5.20;99.90;;;;;;5032652;28;20025;-76
2022/03/24 02:26:17;;;;;;;20.00;15.80;;;5.10;99.90;;;;;;5015086;28;20367;-75
2022/03/24 02:28:44;;;;;;;22.60;16.65;;;5.10;99.90;;;;;;5032423;28;20504;-75
2022/03/24 02:31:11;;;;;;;22.45;16.08;;;5.10;99.90;;;;;;5014783;28;20566;-75
2022/03/24 02:33:36;;;;;;;21.80;16.73;;;5.00;99.90;;;;;;5032715;28;20391;-76
2022/03/24 02:36:03;;;;;;;23.35;14.52;;;5.00;99.90;;;;;;5032457;28;20064;-75
2022/03/24 02:38:29;;;;;;;23.10;16.33;;;5.00;99.90;;;;;;5014341;28;20031;-75
2022/03/24 02:40:55;;;;;;;33.08;16.20;;;5.00;99.90;;;;;;5014162;28;20021;-75
2022/03/24 02:43:21;;;;;;;20.45;16.15;;;5.00;99.90;;;;;;5032030;28;20029;-75
2022/03/24 02:45:49;;;;;;;24.92;16.05;;;5.00;99.90;;;;;;5032248;28;20394;-75
2022/03/24 02:48:15;;;;;;;24.58;17.63;;;5.00;99.90;;;;;;5031921;28;20045;-74
2022/03/24 02:50:41;;;;;;;24.75;16.42;;;5.00;99.90;;;;;;5014662;28;20671;-74
2022/03/24 02:53:06;;;;;;;26.65;15.98;;;5.00;99.90;;;;;;5032122;28;20052;-75
2022/03/24 02:55:32;;;;;;;23.95;16.52;;;5.00;99.90;;;;;;5014289;28;20029;-76
2022/03/24 02:57:58;;;;;;;25.73;16.60;;;5.00;99.90;;;;;;5014250;28;20029;-74
2022/03/24 03:00:25;;;;;;;22.85;15.65;;;4.90;99.90;;;;;;5014440;28;20485;-75
2022/03/24 03:02:54;;;;;;;20.40;15.85;;;4.90;99.90;;;;;;5014019;28;20083;-75
2022/03/24 03:05:21;;;;;;;25.05;16.27;;;4.80;99.90;;;;;;5031926;28;20022;-76
2022/03/24 03:07:47;;;;;;;20.92;16.13;;;4.80;99.90;;;;;;5031980;28;20109;-75
2022/03/24 03:10:14;;;;;;;22.50;15.43;;;4.70;99.90;;;;;;5031572;28;20056;-75
2022/03/24 03:12:40;;;;;;;28.95;17.10;;;4.60;99.90;;;;;;5031502;28;20075;-74
2022/03/24 03:15:06;;;;;;;23.88;16.95;;;4.70;99.90;;;;;;5013826;28;20038;-75
2022/03/24 03:17:35;;;;;;;21.05;16.38;;;4.60;99.90;;;;;;5031695;28;20056;-76
2022/03/24 03:20:00;;;;;;;23.50;16.05;;;4.50;99.90;;;;;;5014107;28;20021;-76
2022/03/24 03:22:27;;;;;;;23.13;16.63;;;4.50;99.90;;;;;;5015320;28;20018;-76
2022/03/24 03:24:53;;;;;;;21.38;15.80;;;4.50;99.90;;;;;;5014849;28;20113;-76
2022/03/24 03:27:18;;;;;;;27.02;18.55;;;4.50;99.90;;;;;;5031741;28;20105;-75
2022/03/24 03:29:44;;;;;;;26.48;16.17;;;4.60;99.90;;;;;;5013974;28;20108;-74
2022/03/24 03:32:11;;;;;;;24.13;17.20;;;4.60;99.90;;;;;;5031300;28;20476;-75
2022/03/24 03:34:38;;;;;;;26.63;17.15;;;4.50;99.90;;;;;;5031927;28;20026;-75
2022/03/24 03:37:04;;;;;;;22.63;15.68;;;4.50;99.90;;;;;;5035621;28;20412;-75
2022/03/24 03:39:30;;;;;;;22.15;16.30;;;4.50;99.90;;;;;;5035412;28;20033;-75
2022/03/24 03:41:57;;;;;;;25.45;16.58;;;4.50;99.90;;;;;;5035193;28;20466;-75
2022/03/24 03:44:23;;;;;;;23.40;16.92;;;4.50;99.90;;;;;;5035497;28;20025;-75
2022/03/24 03:46:51;;;;;;;23.23;15.93;;;4.40;99.90;;;;;;5017730;28;20026;-76
2022/03/24 03:49:17;;;;;;;22.67;17.33;;;4.40;99.90;;;;;;5032642;28;20021;-74
2022/03/24 03:51:43;;;;;;;24.33;17.02;;;4.40;99.90;;;;;;5059387;28;20089;-74
2022/03/24 03:54:08;;;;;;;22.38;16.58;;;4.40;99.90;;;;;;5059341;28;20033;-73
2022/03/24 03:56:36;;;;;;;22.52;16.23;;;4.40;99.90;;;;;;5053105;28;20045;-75
2022/03/24 03:59:01;;;;;;;20.98;15.63;;;4.40;99.90;;;;;;5030052;28;20052;-74
2022/03/24 04:01:29;;;;;;;21.73;16.92;;;4.30;99.90;;;;;;5048357;28;20033;-73
2022/03/24 04:03:55;;;;;;;25.85;16.85;;;4.30;99.90;;;;;;5040813;28;20089;-73
2022/03/24 04:06:20;;;;;;;24.15;16.15;;;4.20;99.90;;;;;;5060440;28;20029;-72
2022/03/24 04:08:46;;;;;;;25.23;17.25;;;4.30;99.90;;;;;;5060528;28;20040;-73
2022/03/24 04:11:12;;;;;;;24.13;16.02;;;4.40;99.90;;;;;;5060309;28;20010;-73
2022/03/24 04:13:40;;;;;;;23.63;15.52;;;4.40;99.90;;;;;;5060356;28;20039;-72
2022/03/24 04:16:11;;;;;;;21.52;15.85;;;4.30;99.90;;;;;;5059231;28;20041;-74
2022/03/24 04:18:37;;;;;;;;;;;4.30;99.90;;;;;;5019501;28;20036;-75
2022/03/24 04:21:02;;;;;;;22.75;15.77;;;4.30;99.90;;;;;;5035369;28;20357;-75
2022/03/24 04:23:28;;;;;;;24.50;16.73;;;4.30;99.90;;;;;;5035805;28;20026;-75
2022/03/24 04:25:54;;;;;;;21.17;15.10;;;4.20;99.90;;;;;;5053446;28;20013;-73
2022/03/24 04:28:19;;;;;;;24.25;15.65;;;4.20;99.90;;;;;;5059376;28;20040;-74
2022/03/24 04:30:45;;;;;;;23.63;15.95;;;4.20;99.90;;;;;;5059017;28;20082;-74
2022/03/24 04:33:10;;;;;;;23.05;15.88;;;4.20;99.90;;;;;;5059230;28;20157;-73
2022/03/24 04:35:36;;;;;;;19.25;15.00;;;4.10;99.90;;;;;;5059130;28;20500;-74
2022/03/24 04:38:04;;;;;;;30.92;15.82;;;4.00;99.90;;;;;;5059346;28;20034;-73
2022/03/24 04:40:30;;;;;;;23.98;15.45;;;4.00;99.90;;;;;;5059208;28;20036;-75
2022/03/24 04:42:56;;;;;;;21.35;15.30;;;3.90;99.90;;;;;;5042169;28;20044;-74
2022/03/24 04:45:23;;;;;;;24.52;17.63;;;3.90;99.90;;;;;;5040435;28;20025;-74
2022/03/24 04:47:50;;;;;;;22.33;16.85;;;3.90;99.90;;;;;;5020696;28;20049;-74
2022/03/24 04:50:17;;;;;;;20.40;16.65;;;3.90;99.90;;;;;;5018387;28;20057;-74
2022/03/24 04:52:43;;;;;;;24.38;16.48;;;3.90;99.90;;;;;;5017097;28;20030;-75
2022/03/24 04:55:09;;;;;;;22.83;15.75;;;3.90;99.90;;;;;;5034785;28;20034;-75
2022/03/24 04:57:36;;;;;;;21.08;15.85;;;3.80;99.90;;;;;;5034944;28;20068;-75
2022/03/24 05:00:03;;;;;;;24.48;15.40;;;3.70;99.90;;;;;;5034480;28;20457;-76
2022/03/24 05:02:29;;;;;;;22.27;15.82;;;3.70;99.90;;;;;;5016989;28;20080;-75
2022/03/24 05:04:54;;;;;;;27.02;17.33;;;3.80;99.90;;;;;;5035173;28;20021;-74
2022/03/24 05:07:20;;;;;;;30.52;17.13;;;3.80;99.90;;;;;;5034682;28;20432;-76
2022/03/24 05:09:46;;;;;;;24.08;16.60;;;3.80;99.90;;;;;;5034181;28;20421;-75
2022/03/24 05:12:12;;;;;;;23.80;16.77;;;3.80;99.90;;;;;;5016101;28;20017;-75
2022/03/24 05:14:38;;;;;;;23.88;16.45;;;3.80;99.90;;;;;;5034451;28;20088;-75
2022/03/24 05:17:05;;;;;;;25.98;15.38;;;3.90;99.90;;;;;;5034290;28;20035;-76
2022/03/24 05:19:31;;;;;;;35.63;16.95;;;3.90;99.90;;;;;;5016737;28;20083;-74
2022/03/24 05:21:57;;;;;;;30.65;18.55;;;3.90;99.90;;;;;;5033722;28;20025;-74
2022/03/24 05:24:23;;;;;;;26.85;17.95;;;3.90;99.90;;;;;;5016208;28;20465;-75
2022/03/24 05:26:48;;;;;;;24.63;16.08;;;3.80;99.90;;;;;;5034876;28;20042;-76
2022/03/24 05:29:15;;;;;;;28.80;17.83;;;3.80;99.90;;;;;;5018561;28;20048;-75
2022/03/24 05:31:41;;;;;;;28.25;16.85;;;3.90;99.90;;;;;;5034696;28;20176;-73
2022/03/24 05:34:06;;;;;;;29.48;16.67;;;4.00;99.90;;;;;;5016589;28;20068;-74
2022/03/24 05:36:32;;;;;;;31.52;16.70;;;4.10;99.90;;;;;;5034466;28;20040;-75
2022/03/24 05:38:58;;;;;;;33.45;17.60;;;4.20;99.90;;;;;;5034425;28;20095;-76
2022/03/24 05:41:24;;;;;;;26.17;16.58;;;4.40;99.90;;;;;;5016554;28;20494;-77
2022/03/24 05:44:05;;;;;;;25.38;15.60;;;4.60;99.90;;;;;;5034262;28;20029;-76
2022/03/24 05:46:32;;;;;;;24.77;16.95;;;4.70;99.90;;;;;;5033985;28;20113;-75
2022/03/24 05:48:58;;;;;;;24.13;16.55;;;4.80;99.90;;;;;;5033503;28;20346;-77
2022/03/24 05:51:24;;;;;;;24.70;15.88;;;4.90;99.90;;;;;;5033659;28;20516;-75
2022/03/24 05:53:50;;;;;;;23.42;16.33;;;5.10;99.90;;;;;;5035323;28;20026;-74
2022/03/24 05:56:18;;;;;;;30.98;18.70;;;5.10;99.90;;;;;;5016871;28;20060;-77
2022/03/24 05:58:44;;;;;;;33.70;17.10;;;5.10;99.90;;;;;;5033257;28;20022;-75
2022/03/24 06:01:09;;;;;;;24.25;16.90;;;5.10;99.90;;;;;;5016468;28;20029;-75
2022/03/24 06:03:36;;;;;;;27.27;17.23;;;5.00;99.90;;;;;;5034361;28;20029;-78
2022/03/24 06:06:03;;;;;;;29.90;17.40;;;5.00;99.90;;;;;;5033597;28;20370;-74
2022/03/24 06:08:30;;;;;;;32.17;17.80;;;5.00;99.90;;;;;;5033717;28;20025;-77
2022/03/24 06:10:56;;;;;;;29.30;16.70;;;5.00;99.90;;;;;;5017280;28;20030;-74
2022/03/24 06:13:22;;;;;;;25.45;18.05;;;5.10;99.90;;;;;;5034503;28;20029;-77
2022/03/24 06:15:50;;;;;;;31.40;16.67;;;5.20;99.90;;;;;;5033181;28;20094;-75
2022/03/24 06:18:16;;;;;;;23.58;16.70;;;5.30;99.90;;;;;;5015612;28;20120;-76
2022/03/24 06:20:43;;;;;;;28.45;16.65;;;5.40;99.90;;;;;;5033421;28;20018;-75
2022/03/24 06:23:09;;;;;;;25.00;16.73;;;5.60;99.90;;;;;;5015379;28;20076;-77
2022/03/24 06:25:37;;;;;;;25.48;16.33;;;5.80;99.90;;;;;;5016177;28;20442;-77
2022/03/24 06:28:06;;;;;;;28.65;15.52;;;6.00;99.90;;;;;;5000286;28;20427;-75
2022/03/24 06:30:32;;;;;;;23.98;16.52;;;6.00;99.90;;;;;;5034989;28;20027;-76
2022/03/24 06:32:58;;;;;;;27.45;16.42;;;6.10;99.90;;;;;;5016596;28;20568;-77
2022/03/24 06:35:24;;;;;;;24.00;16.52;;;6.10;99.90;;;;;;5016268;28;20125;-76
2022/03/24 06:37:51;;;;;;;21.85;16.48;;;6.20;99.90;;;;;;5033540;28;20056;-75
2022/03/24 06:40:18;;;;;;;27.45;17.48;;;6.20;99.90;;;;;;5033351;28;20018;-75
2022/03/24 06:42:43;;;;;;;24.20;17.42;;;6.40;99.90;;;;;;5015597;28;20428;-75
2022/03/24 06:45:11;;;;;;;25.83;17.50;;;6.30;99.90;;;;;;5033275;28;20052;-74
2022/03/24 06:47:39;;;;;;;25.40;16.33;;;6.50;99.90;;;;;;5044058;28;20029;-73
2022/03/24 06:50:05;;;;;;;22.05;17.58;;;6.60;99.90;;;;;;5027967;28;20030;-76
2022/03/24 06:52:31;;;;;;;34.38;18.15;;;6.80;99.90;;;;;;5044530;28;20112;-75
2022/03/24 06:54:56;;;;;;;32.92;16.55;;;6.80;99.90;;;;;;5044418;28;20060;-74
2022/03/24 06:57:22;;;;;;;28.38;16.20;;;6.80;99.90;;;;;;5041887;28;20107;-76
2022/03/24 06:59:47;;;;;;;23.15;16.30;;;6.80;99.90;;;;;;5014718;28;20104;-75
2022/03/24 07:02:13;;;;;;;27.30;17.40;;;6.80;99.90;;;;;;5014397;28;20473;-75
2022/03/24 07:04:38;;;;;;;26.95;18.08;;;7.10;99.90;;;;;;5032078;28;20021;-75
2022/03/24 07:07:04;;;;;;;25.58;17.23;;;7.20;99.90;;;;;;5014057;28;20040;-76
2022/03/24 07:09:30;;;;;;;26.63;18.08;;;7.30;99.50;;;;;;5032479;28;20486;-75
2022/03/24 07:11:57;;;;;;;22.98;16.40;;;7.40;99.40;;;;;;5035945;28;20033;-75
2022/03/24 07:14:24;;;;;;;29.30;17.98;;;7.50;99.30;;;;;;5018346;28;20029;-76
2022/03/24 07:16:50;;;;;;;21.48;16.55;;;7.60;99.00;;;;;;5036214;28;20018;-75
2022/03/24 07:19:16;;;;;;;24.23;19.15;;;7.80;98.80;;;;;;5036257;28;20140;-75
2022/03/24 07:21:41;;;;;;;23.35;17.38;;;7.80;98.70;;;;;;5035948;28;20053;-75
2022/03/24 07:24:07;;;;;;;26.75;17.45;;;7.80;98.60;;;;;;5036380;28;20585;-75
2022/03/24 07:26:32;;;;;;;24.42;18.13;;;7.80;98.30;;;;;;5035916;28;20092;-75
2022/03/24 07:28:58;;;;;;;25.83;18.33;;;7.80;98.30;;;;;;5019865;28;20060;-75
2022/03/24 07:31:24;;;;;;;27.48;17.95;;;7.80;98.20;;;;;;5036033;28;20093;-76
2022/03/24 07:33:53;;;;;;;27.75;18.13;;;7.90;98.20;;;;;;5036288;28;20055;-75
2022/03/24 07:36:22;;;;;;;26.08;17.92;;;8.00;98.20;;;;;;5036138;28;20032;-76
2022/03/24 07:38:52;;;;;;;31.00;17.80;;;8.10;97.60;;;;;;5035933;28;20029;-74
2022/03/24 07:41:18;;;;;;;28.83;18.17;;;8.30;97.20;;;;;;5036262;28;20026;-76
2022/03/24 07:43:44;;;;;;;30.67;19.13;;;8.30;97.20;;;;;;5018353;28;20413;-74
2022/03/24 07:46:11;;;;;;;29.50;18.40;;;8.40;96.70;;;;;;5035749;28;20044;-75
2022/03/24 07:48:38;;;;;;;28.35;18.80;;;8.50;96.90;;;;;;5018247;28;20482;-77
2022/03/24 07:51:05;;;;;;;27.88;18.75;;;8.60;96.60;;;;;;5035325;28;20029;-77
2022/03/24 07:53:48;;;;;;;27.23;19.40;;;8.60;96.50;;;;;;5035476;28;20512;-75
2022/03/24 07:56:16;;;;;;;25.42;17.30;;;8.70;96.40;;;;;;5035638;28;20026;-75
2022/03/24 07:58:42;;;;;;;32.08;18.25;;;8.80;96.40;;;;;;5035623;28;20445;-76
2022/03/24 08:01:08;;;;;;;28.40;18.02;;;9.00;96.00;;;;;;5035273;28;20072;-76
2022/03/24 08:03:34;;;;;;;31.63;18.38;;;9.10;95.90;;;;;;5035557;28;20018;-77
2022/03/24 08:06:01;;;;;;;30.05;18.55;;;9.20;95.40;;;;;;5017335;28;20028;-75
2022/03/24 08:08:27;;;;;;;29.77;19.88;;;9.30;95.10;;;;;;5035281;28;20081;-75
2022/03/24 08:10:54;;;;;;;28.55;18.95;;;9.20;95.50;;;;;;5035206;28;20057;-75
2022/03/24 08:13:21;;;;;;;29.92;19.25;;;9.40;94.90;;;;;;5017537;28;20482;-76
2022/03/24 08:15:48;;;;;;;29.83;19.45;;;9.50;94.70;;;;;;5035219;28;20093;-75
2022/03/24 08:18:15;;;;;;;30.45;20.23;;;9.70;94.30;;;;;;5034815;28;20025;-75
2022/03/24 08:20:42;;;;;;;29.98;18.88;;;9.80;94.20;;;;;;5034882;28;20103;-75
2022/03/24 08:23:09;;;;;;;29.65;18.73;;;9.80;94.30;;;;;;5035379;28;20021;-76
2022/03/24 08:25:36;;;;;;;26.42;18.13;;;9.90;94.20;;;;;;5035433;28;20021;-75
2022/03/24 08:28:02;;;;;;;28.67;19.38;;;10.10;93.50;;;;;;5035478;28;20524;-75
2022/03/24 08:30:28;;;;;;;28.00;19.08;;;10.20;93.40;;;;;;5034968;28;20026;-75
2022/03/24 08:32:53;;;;;;;33.75;19.85;;;10.30;93.30;;;;;;5034996;28;20030;-75
2022/03/24 08:35:19;;;;;;;33.13;18.85;;;10.30;93.30;;;;;;5034810;28;20029;-75
2022/03/24 08:37:44;;;;;;;27.83;19.75;;;10.30;93.40;;;;;;5035184;28;20029;-75
2022/03/24 08:40:11;;;;;;;36.08;20.00;;;10.60;92.80;;;;;;5035237;28;20104;-76
2022/03/24 08:42:40;;;;;;;25.65;18.23;;;10.70;92.30;;;;;;5035683;28;20140;-75
2022/03/24 08:45:08;;;;;;;32.40;19.67;;;10.90;92.10;;;;;;5017600;28;20026;-76
2022/03/24 08:47:34;;;;;;;25.80;18.52;;;10.90;91.80;;;;;;5034883;28;20067;-75
2022/03/24 08:50:00;;;;;;;28.17;19.20;;;11.00;91.60;;;;;;5035019;28;20033;-76
2022/03/24 08:52:27;;;;;;;31.55;20.25;;;11.20;91.60;;;;;;5036060;28;20095;-74
2022/03/24 08:54:54;;;;;;;31.08;19.23;;;11.40;90.90;;;;;;5037021;28;20539;-75
2022/03/24 08:57:25;;;;;;;28.77;19.40;;;11.50;90.40;;;;;;5035255;28;20029;-77
2022/03/24 09:00:00;;;;;;;29.35;19.88;;;11.50;90.30;;;;;;5034958;28;20028;-76
2022/03/24 09:02:26;;;;;;;28.17;20.30;;;11.70;90.10;;;;;;5035619;28;20072;-75
2022/03/24 09:04:52;;;;;;;29.60;21.25;;;11.80;89.30;;;;;;5035414;28;20022;-75
2022/03/24 09:07:18;;;;;;;23.50;19.83;;;11.90;88.30;;;;;;5035055;28;20104;-76
2022/03/24 09:09:44;;;;;;;27.13;20.75;;;11.90;87.30;;;;;;5034166;28;20067;-76
2022/03/24 09:12:10;;;;;;;32.85;20.67;;;12.10;86.30;;;;;;5034233;28;20022;-77
2022/03/24 09:14:37;;;;;;;30.88;21.13;;;12.30;85.60;;;;;;5015931;28;20120;-75
2022/03/24 09:17:02;;;;;;;31.80;21.52;;;12.40;86.00;;;;;;5033958;28;20018;-75
2022/03/24 09:19:29;;;;;;;27.60;20.60;;;12.50;85.20;;;;;;5034079;28;20029;-76
2022/03/24 09:21:54;;;;;;;32.97;21.45;;;12.50;84.90;;;;;;5033742;28;20185;-76
2022/03/24 09:24:20;;;;;;;38.38;22.95;;;12.80;84.00;;;;;;5033786;28;20057;-75
2022/03/24 09:26:45;;;;;;;32.17;21.02;;;12.80;82.50;;;;;;5033629;28;20394;-75
2022/03/24 09:29:11;;;;;;;28.95;21.23;;;12.70;83.20;;;;;;5033608;28;20417;-75
2022/03/24 09:31:36;;;;;;;34.88;22.30;;;12.70;82.80;;;;;;5033290;28;20034;-76
2022/03/24 09:34:03;;;;;;;30.35;21.73;;;13.20;80.40;;;;;;5033300;28;20076;-75
2022/03/24 09:36:29;;;;;;;36.22;21.08;;;13.10;80.50;;;;;;5034196;28;20028;-75
2022/03/24 09:38:55;;;;;;;29.40;22.17;;;13.30;80.10;;;;;;5034216;28;20448;-76
2022/03/24 09:41:21;;;;;;;29.17;22.30;;;13.60;79.60;;;;;;5015921;28;20025;-77
2022/03/24 09:43:47;;;;;;;34.20;23.30;;;13.80;78.20;;;;;;5016126;28;20028;-75
2022/03/24 09:46:15;;;;;;;31.20;22.15;;;13.70;77.50;;;;;;5016057;28;20075;-75
2022/03/24 09:48:41;;;;;;;33.13;21.67;;;13.90;75.70;;;;;;5033811;28;20025;-76
2022/03/24 09:51:07;;;;;;;27.45;21.60;;;14.10;74.50;;;;;;5033633;28;20025;-75
2022/03/24 09:53:33;;;;;;;38.13;23.92;;;14.30;73.70;;;;;;5033804;28;20524;-74
2022/03/24 09:55:59;;;;;;;26.50;20.65;;;14.40;72.70;;;;;;5034125;28;20034;-76
2022/03/24 09:58:28;;;;;;;25.30;20.80;;;14.50;70.60;;;;;;5035038;28;20022;-76
2022/03/24 10:00:53;;;;;;;29.02;22.98;;;14.60;70.20;;;;;;5033822;28;20386;-75
2022/03/24 10:03:21;;;;;;;34.03;23.05;;;14.70;69.60;;;;;;5033720;28;20021;-77
2022/03/24 10:05:55;;;;;;;31.83;22.75;;;14.80;69.50;;;;;;5033602;28;20085;-76
2022/03/24 10:08:21;;;;;;;39.28;23.05;;;15.00;69.70;;;;;;5015944;28;20477;-75
2022/03/24 10:10:46;;;;;;;43.83;23.63;;;15.00;68.90;;;;;;5034229;28;20040;-77
2022/03/24 10:13:12;;;;;;;30.40;21.73;;;15.00;68.80;;;;;;5033557;28;20017;-76
2022/03/24 10:15:38;;;;;;;27.67;22.55;;;15.20;67.10;;;;;;5034266;28;20041;-76
2022/03/24 10:18:04;;;;;;;29.58;22.15;;;15.30;65.90;;;;;;5015469;28;20057;-75
2022/03/24 10:20:30;;;;;;;29.45;21.30;;;15.50;65.80;;;;;;5033719;28;20030;-76
2022/03/24 10:22:56;;;;;;;22.98;19.42;;;15.60;64.40;;;;;;5034125;28;20032;-75
2022/03/24 10:25:33;;;;;;;30.92;20.83;;;15.30;63.70;;;;;;5016257;28;20417;-76
2022/03/24 10:28:09;;;;;;;30.23;20.13;;;15.60;63.40;;;;;;5033853;28;20049;-75
2022/03/24 10:30:58;;;;;;;24.33;19.90;;;15.90;62.20;;;;;;5033993;28;20029;-75
2022/03/24 10:33:27;;;;;;;30.25;21.67;;;15.70;62.40;;;;;;5016479;28;20097;-77
2022/03/24 10:36:13;;;;;;;26.15;20.75;;;15.70;62.60;;;;;;5032662;28;20025;-76
2022/03/24 10:38:43;;;;;;;24.08;20.25;;;15.90;62.50;;;;;;5032580;28;20029;-76
2022/03/24 10:41:16;;;;;;;29.02;20.77;;;16.30;61.00;;;;;;5015518;28;20022;-76
2022/03/24 10:43:42;;;;;;;23.27;19.77;;;16.50;60.40;;;;;;5033132;28;20028;-76
2022/03/24 10:46:19;;;;;;;25.75;19.40;;;16.60;59.40;;;;;;5033287;28;20105;-76
2022/03/24 10:48:47;;;;;;;23.92;18.80;;;16.80;58.90;;;;;;5033226;28;20100;-76
2022/03/24 10:51:23;;;;;;;22.00;17.48;;;16.90;58.20;;;;;;5033256;28;20072;-76
2022/03/24 10:53:49;;;;;;;23.15;17.30;;;17.00;56.90;;;;;;5033215;28;20033;-75
2022/03/24 10:56:39;;;;;;;24.15;17.80;;;17.00;55.70;;;;;;5015390;28;20029;-78
2022/03/24 10:59:05;;;;;;;19.60;17.58;;;17.10;56.30;;;;;;5015496;28;20025;-78
2022/03/24 11:01:32;;;;;;;24.00;18.25;;;17.30;56.20;;;;;;5014554;28;20021;-75
2022/03/24 11:03:58;;;;;;;23.02;18.90;;;17.10;55.40;;;;;;5014464;28;20071;-75
2022/03/24 11:06:23;;;;;;;24.83;19.63;;;17.10;56.10;;;;;;5032189;28;20494;-75
2022/03/24 11:08:54;;;;;;;29.80;19.23;;;17.40;56.30;;;;;;5032528;28;20104;-74
2022/03/24 11:11:20;;;;;;;29.02;21.77;;;17.10;57.20;;;;;;5014329;28;20025;-76
2022/03/24 11:13:53;;;;;;;26.20;19.05;;;17.40;57.70;;;;;;5032817;28;20630;-76
2022/03/24 11:16:27;;;;;;;30.58;19.60;;;17.70;57.60;;;;;;5014750;28;20029;-75
2022/03/24 11:18:56;;;;;;;23.83;19.88;;;17.70;57.10;;;;;;5032027;28;20026;-75
2022/03/24 11:21:29;;;;;;;27.20;20.25;;;17.80;56.90;;;;;;5014147;28;20076;-75
2022/03/24 11:23:56;;;;;;;24.17;19.33;;;17.70;56.40;;;;;;5014886;28;20112;-75
2022/03/24 11:26:23;;;;;;;23.15;19.35;;;17.80;55.70;;;;;;5014302;28;20221;-76
2022/03/24 11:28:50;;;;;;;23.70;17.52;;;17.90;55.40;;;;;;5032640;28;20041;-75
2022/03/24 11:31:17;;;;;;;19.23;16.88;;;17.80;54.40;;;;;;5014096;28;20044;-76
2022/03/24 11:33:48;;;;;;;19.30;17.27;;;18.00;53.70;;;;;;5032124;28;20509;-76
2022/03/24 11:36:17;;;;;;;17.70;15.85;;;17.90;53.10;;;;;;5032090;28;20029;-77
2022/03/24 11:38:45;;;;;;;18.35;15.73;;;18.20;52.70;;;;;;5032515;28;20025;-75
2022/03/24 11:41:23;;;;;;;19.52;16.35;;;18.30;52.40;;;;;;5014675;28;20021;-76
2022/03/24 11:43:53;;;;;;;20.35;16.92;;;18.30;51.50;;;;;;5015970;28;20108;-76
2022/03/24 11:46:40;;;;;;;16.05;13.30;;;18.30;52.10;;;;;;5014355;28;20036;-75
2022/03/24 11:49:18;;;;;;;18.30;12.93;;;18.50;49.40;;;;;;5014596;28;20025;-75
2022/03/24 11:51:59;;;;;;;14.30;12.80;;;18.60;47.70;;;;;;5032071;28;20017;-76
2022/03/24 11:54:35;;;;;;;12.18;11.02;;;18.80;46.60;;;;;;5014858;28;20030;-76
2022/03/24 11:57:33;;;;;;;14.20;12.15;;;18.70;45.10;;;;;;5034343;28;20032;-76
2022/03/24 12:00:14;;;;;;;14.13;11.73;;;18.70;46.30;;;;;;5009823;28;20390;-75
2022/03/24 12:02:50;;;;;;;14.50;12.63;;;18.60;46.20;;;;;;5035814;28;20088;-75
2022/03/24 12:05:16;;;;;;;17.23;14.85;;;18.50;47.70;;;;;;5035436;28;20371;-75
2022/03/24 12:07:42;;;;;;;16.73;14.15;;;18.80;47.90;;;;;;5035420;28;20025;-75
2022/03/24 12:10:10;;;;;;;14.68;13.07;;;18.70;48.70;;;;;;5018020;28;20021;-75
2022/03/24 12:12:37;;;;;;;21.02;14.02;;;18.80;46.60;;;;;;5017538;28;20068;-76
2022/03/24 12:15:24;;;;;;;17.00;15.05;;;18.90;48.00;;;;;;5036053;28;20056;-75
2022/03/24 12:18:05;;;;;;;18.13;14.88;;;19.00;48.00;;;;;;5052838;28;20056;-74
2022/03/24 12:20:46;;;;;;;17.25;15.35;;;19.10;47.70;;;;;;5018995;28;20112;-76
2022/03/24 12:23:11;;;;;;;;;;;18.80;47.90;;;;;;5018114;28;20025;-76
2022/03/24 12:25:38;;;;;;;21.25;14.77;;;19.00;47.80;;;;;;5036485;28;19905;-77
2022/03/24 12:28:13;;;;;;;18.25;14.80;;;19.00;47.20;;;;;;5018783;28;20374;-75
2022/03/24 12:30:53;;;;;;;22.80;13.23;;;19.00;47.70;;;;;;5035586;28;20025;-75
2022/03/24 12:33:40;;;;;;;14.50;13.05;;;19.00;46.20;;;;;;5017370;28;20025;-76
2022/03/24 12:36:07;;;;;;;14.05;12.65;;;19.10;46.60;;;;;;5035327;28;20105;-76